sensor_id;sensor_type;location;lat;lon;timestamp;P1;durP1;ratioP1;P2;durP2;ratioP2
32786;SDS011;19139;49.372;8.580;2023-07-29T00:00:43;1.77;;;1.67;;
32786;SDS011;19139;49.372;8.580;2023-07-29T00:03:10;1.70;;;1.60;;
32786;SDS011;19139;49.372;8.580;2023-07-29T00:05:37;1.63;;;1.47;;
32786;SDS011;19139;49.372;8.580;2023-07-29T00:08:05;2.20;;;1.50;;
32786;SDS011;19139;49.372;8.580;2023-07-29T00:10:32;2.50;;;1.57;;
32786;SDS011;19139;49.372;8.580;2023-07-29T00:13:01;2.27;;;1.63;;
32786;SDS011;19139;49.372;8.580;2023-07-29T00:15:28;1.70;;;1.50;;
32786;SDS011;19139;49.372;8.580;2023-07-29T00:17:54;1.67;;;1.57;;
32786;SDS011;19139;49.372;8.580;2023-07-29T00:20:21;1.63;;;1.53;;
32786;SDS011;19139;49.372;8.580;2023-07-29T00:22:48;1.77;;;1.57;;
32786;SDS011;19139;49.372;8.580;2023-07-29T00:25:16;1.67;;;1.57;;
32786;SDS011;19139;49.372;8.580;2023-07-29T00:27:42;2.73;;;1.60;;
32786;SDS011;19139;49.372;8.580;2023-07-29T00:30:09;1.93;;;1.60;;
32786;SDS011;19139;49.372;8.580;2023-07-29T00:32:36;1.60;;;1.33;;
32786;SDS011;19139;49.372;8.580;2023-07-29T00:35:03;2.10;;;1.43;;
32786;SDS011;19139;49.372;8.580;2023-07-29T00:37:30;1.60;;;1.50;;
32786;SDS011;19139;49.372;8.580;2023-07-29T00:39:57;1.50;;;1.40;;
32786;SDS011;19139;49.372;8.580;2023-07-29T00:42:24;1.77;;;1.60;;
32786;SDS011;19139;49.372;8.580;2023-07-29T00:44:51;3.00;;;1.50;;
32786;SDS011;19139;49.372;8.580;2023-07-29T00:47:18;1.97;;;1.77;;
32786;SDS011;19139;49.372;8.580;2023-07-29T00:49:47;2.13;;;1.50;;
32786;SDS011;19139;49.372;8.580;2023-07-29T00:52:14;1.70;;;1.40;;
32786;SDS011;19139;49.372;8.580;2023-07-29T00:54:40;1.73;;;1.60;;
32786;SDS011;19139;49.372;8.580;2023-07-29T00:57:08;1.63;;;1.53;;
32786;SDS011;19139;49.372;8.580;2023-07-29T00:59:37;2.07;;;1.70;;
32786;SDS011;19139;49.372;8.580;2023-07-29T01:02:04;1.50;;;1.40;;
32786;SDS011;19139;49.372;8.580;2023-07-29T01:04:31;1.57;;;1.37;;
32786;SDS011;19139;49.372;8.580;2023-07-29T01:07:11;1.93;;;1.53;;
32786;SDS011;19139;49.372;8.580;2023-07-29T01:09:56;2.23;;;1.70;;
32786;SDS011;19139;49.372;8.580;2023-07-29T01:12:34;1.50;;;1.40;;
32786;SDS011;19139;49.372;8.580;2023-07-29T01:15:14;1.63;;;1.53;;
32786;SDS011;19139;49.372;8.580;2023-07-29T01:17:55;1.73;;;1.20;;
32786;SDS011;19139;49.372;8.580;2023-07-29T01:20:25;1.40;;;1.30;;
32786;SDS011;19139;49.372;8.580;2023-07-29T01:22:52;1.63;;;1.40;;
32786;SDS011;19139;49.372;8.580;2023-07-29T01:25:19;1.50;;;1.40;;
32786;SDS011;19139;49.372;8.580;2023-07-29T01:27:46;2.20;;;1.23;;
32786;SDS011;19139;49.372;8.580;2023-07-29T01:30:14;2.60;;;1.30;;
32786;SDS011;19139;49.372;8.580;2023-07-29T01:32:45;1.43;;;1.30;;
32786;SDS011;19139;49.372;8.580;2023-07-29T01:38:05;1.40;;;1.30;;
32786;SDS011;19139;49.372;8.580;2023-07-29T01:40:38;1.40;;;1.27;;
32786;SDS011;19139;49.372;8.580;2023-07-29T01:43:06;1.47;;;1.37;;
32786;SDS011;19139;49.372;8.580;2023-07-29T01:45:36;2.13;;;1.23;;
32786;SDS011;19139;49.372;8.580;2023-07-29T01:48:04;1.90;;;1.67;;
32786;SDS011;19139;49.372;8.580;2023-07-29T01:50:32;1.27;;;1.17;;
32786;SDS011;19139;49.372;8.580;2023-07-29T01:52:59;1.37;;;1.27;;
32786;SDS011;19139;49.372;8.580;2023-07-29T01:55:25;1.93;;;1.53;;
32786;SDS011;19139;49.372;8.580;2023-07-29T01:57:52;1.60;;;1.40;;
32786;SDS011;19139;49.372;8.580;2023-07-29T02:00:19;1.53;;;1.30;;
32786;SDS011;19139;49.372;8.580;2023-07-29T02:02:47;1.60;;;1.40;;
32786;SDS011;19139;49.372;8.580;2023-07-29T02:05:13;1.10;;;1.00;;
32786;SDS011;19139;49.372;8.580;2023-07-29T02:07:40;1.60;;;1.40;;
32786;SDS011;19139;49.372;8.580;2023-07-29T02:10:07;1.47;;;1.27;;
32786;SDS011;19139;49.372;8.580;2023-07-29T02:12:34;2.30;;;1.33;;
32786;SDS011;19139;49.372;8.580;2023-07-29T02:15:01;1.53;;;1.23;;
32786;SDS011;19139;49.372;8.580;2023-07-29T02:17:27;1.60;;;1.37;;
32786;SDS011;19139;49.372;8.580;2023-07-29T02:19:54;1.57;;;1.37;;
32786;SDS011;19139;49.372;8.580;2023-07-29T02:22:21;1.37;;;1.10;;
32786;SDS011;19139;49.372;8.580;2023-07-29T02:24:47;1.50;;;1.40;;
32786;SDS011;19139;49.372;8.580;2023-07-29T02:27:14;1.40;;;1.30;;
32786;SDS011;19139;49.372;8.580;2023-07-29T02:29:41;1.70;;;1.50;;
32786;SDS011;19139;49.372;8.580;2023-07-29T02:32:07;1.67;;;1.57;;
32786;SDS011;19139;49.372;8.580;2023-07-29T02:34:34;1.73;;;1.43;;
32786;SDS011;19139;49.372;8.580;2023-07-29T02:37:01;1.30;;;1.20;;
32786;SDS011;19139;49.372;8.580;2023-07-29T02:39:28;1.67;;;1.17;;
32786;SDS011;19139;49.372;8.580;2023-07-29T02:41:55;1.30;;;1.20;;
32786;SDS011;19139;49.372;8.580;2023-07-29T02:44:22;1.30;;;1.20;;
32786;SDS011;19139;49.372;8.580;2023-07-29T02:46:48;1.67;;;1.30;;
32786;SDS011;19139;49.372;8.580;2023-07-29T02:49:15;1.60;;;1.30;;
32786;SDS011;19139;49.372;8.580;2023-07-29T02:51:42;1.73;;;1.30;;
32786;SDS011;19139;49.372;8.580;2023-07-29T02:54:08;1.83;;;1.30;;
32786;SDS011;19139;49.372;8.580;2023-07-29T02:56:35;1.67;;;1.30;;
32786;SDS011;19139;49.372;8.580;2023-07-29T02:59:02;1.60;;;1.27;;
32786;SDS011;19139;49.372;8.580;2023-07-29T03:01:29;1.33;;;1.17;;
32786;SDS011;19139;49.372;8.580;2023-07-29T03:03:55;1.43;;;1.27;;
32786;SDS011;19139;49.372;8.580;2023-07-29T03:06:22;1.30;;;1.00;;
32786;SDS011;19139;49.372;8.580;2023-07-29T03:08:49;1.53;;;1.23;;
32786;SDS011;19139;49.372;8.580;2023-07-29T03:11:16;1.00;;;0.90;;
32786;SDS011;19139;49.372;8.580;2023-07-29T03:13:43;1.43;;;1.17;;
32786;SDS011;19139;49.372;8.580;2023-07-29T03:16:11;1.10;;;1.00;;
32786;SDS011;19139;49.372;8.580;2023-07-29T03:18:42;1.17;;;1.07;;
32786;SDS011;19139;49.372;8.580;2023-07-29T03:21:10;1.10;;;0.93;;
32786;SDS011;19139;49.372;8.580;2023-07-29T03:23:37;1.47;;;1.30;;
32786;SDS011;19139;49.372;8.580;2023-07-29T03:26:04;1.20;;;1.00;;
32786;SDS011;19139;49.372;8.580;2023-07-29T03:28:39;1.17;;;1.07;;
32786;SDS011;19139;49.372;8.580;2023-07-29T03:31:09;2.57;;;1.50;;
32786;SDS011;19139;49.372;8.580;2023-07-29T03:33:36;1.57;;;1.00;;
32786;SDS011;19139;49.372;8.580;2023-07-29T03:36:03;1.50;;;1.13;;
32786;SDS011;19139;49.372;8.580;2023-07-29T03:38:30;1.93;;;1.10;;
32786;SDS011;19139;49.372;8.580;2023-07-29T03:40:59;2.30;;;1.30;;
32786;SDS011;19139;49.372;8.580;2023-07-29T03:43:25;1.60;;;1.20;;
32786;SDS011;19139;49.372;8.580;2023-07-29T03:45:52;1.37;;;1.27;;
32786;SDS011;19139;49.372;8.580;2023-07-29T03:48:19;1.10;;;1.00;;
32786;SDS011;19139;49.372;8.580;2023-07-29T03:50:45;1.50;;;1.30;;
32786;SDS011;19139;49.372;8.580;2023-07-29T03:53:12;1.83;;;1.27;;
32786;SDS011;19139;49.372;8.580;2023-07-29T03:55:38;1.27;;;1.17;;
32786;SDS011;19139;49.372;8.580;2023-07-29T03:58:05;1.50;;;1.23;;
32786;SDS011;19139;49.372;8.580;2023-07-29T04:00:32;1.40;;;1.30;;
32786;SDS011;19139;49.372;8.580;2023-07-29T04:02:59;1.57;;;1.27;;
32786;SDS011;19139;49.372;8.580;2023-07-29T04:05:25;1.60;;;1.20;;
32786;SDS011;19139;49.372;8.580;2023-07-29T04:07:53;1.40;;;1.23;;
32786;SDS011;19139;49.372;8.580;2023-07-29T04:10:20;1.37;;;0.93;;
32786;SDS011;19139;49.372;8.580;2023-07-29T04:12:47;2.87;;;1.10;;
32786;SDS011;19139;49.372;8.580;2023-07-29T04:15:13;1.03;;;0.93;;
32786;SDS011;19139;49.372;8.580;2023-07-29T04:17:40;1.20;;;1.10;;
32786;SDS011;19139;49.372;8.580;2023-07-29T04:20:07;1.20;;;1.10;;
32786;SDS011;19139;49.372;8.580;2023-07-29T04:22:34;1.17;;;1.00;;
32786;SDS011;19139;49.372;8.580;2023-07-29T04:25:00;2.87;;;1.00;;
32786;SDS011;19139;49.372;8.580;2023-07-29T04:27:27;1.57;;;1.10;;
32786;SDS011;19139;49.372;8.580;2023-07-29T04:29:54;2.57;;;0.97;;
32786;SDS011;19139;49.372;8.580;2023-07-29T04:32:20;1.50;;;1.10;;
32786;SDS011;19139;49.372;8.580;2023-07-29T04:34:47;1.10;;;1.00;;
32786;SDS011;19139;49.372;8.580;2023-07-29T04:37:14;1.40;;;1.00;;
32786;SDS011;19139;49.372;8.580;2023-07-29T04:39:40;1.03;;;0.83;;
32786;SDS011;19139;49.372;8.580;2023-07-29T04:42:07;0.70;;;0.67;;
32786;SDS011;19139;49.372;8.580;2023-07-29T04:44:34;1.77;;;0.97;;
32786;SDS011;19139;49.372;8.580;2023-07-29T04:47:00;0.80;;;0.67;;
32786;SDS011;19139;49.372;8.580;2023-07-29T04:49:27;0.93;;;0.83;;
32786;SDS011;19139;49.372;8.580;2023-07-29T04:51:54;1.07;;;0.90;;
32786;SDS011;19139;49.372;8.580;2023-07-29T04:54:21;1.17;;;0.90;;
32786;SDS011;19139;49.372;8.580;2023-07-29T04:56:47;1.20;;;1.10;;
32786;SDS011;19139;49.372;8.580;2023-07-29T04:59:14;1.10;;;1.00;;
32786;SDS011;19139;49.372;8.580;2023-07-29T05:01:40;1.10;;;1.00;;
32786;SDS011;19139;49.372;8.580;2023-07-29T05:04:09;1.30;;;0.97;;
32786;SDS011;19139;49.372;8.580;2023-07-29T05:06:36;1.10;;;1.00;;
32786;SDS011;19139;49.372;8.580;2023-07-29T05:09:13;0.90;;;0.80;;
32786;SDS011;19139;49.372;8.580;2023-07-29T05:11:44;0.80;;;0.80;;
32786;SDS011;19139;49.372;8.580;2023-07-29T05:14:12;1.20;;;0.90;;
32786;SDS011;19139;49.372;8.580;2023-07-29T05:16:39;1.47;;;1.10;;
32786;SDS011;19139;49.372;8.580;2023-07-29T05:19:06;1.60;;;0.90;;
32786;SDS011;19139;49.372;8.580;2023-07-29T05:21:33;1.03;;;0.93;;
32786;SDS011;19139;49.372;8.580;2023-07-29T05:24:00;0.97;;;0.87;;
32786;SDS011;19139;49.372;8.580;2023-07-29T05:26:26;1.07;;;0.90;;
32786;SDS011;19139;49.372;8.580;2023-07-29T05:28:53;0.93;;;0.70;;
32786;SDS011;19139;49.372;8.580;2023-07-29T05:31:19;0.83;;;0.80;;
32786;SDS011;19139;49.372;8.580;2023-07-29T05:33:46;1.00;;;0.90;;
32786;SDS011;19139;49.372;8.580;2023-07-29T05:36:13;0.90;;;0.90;;
32786;SDS011;19139;49.372;8.580;2023-07-29T05:38:40;1.37;;;0.97;;
32786;SDS011;19139;49.372;8.580;2023-07-29T05:41:06;1.20;;;1.10;;
32786;SDS011;19139;49.372;8.580;2023-07-29T05:43:33;1.40;;;1.07;;
32786;SDS011;19139;49.372;8.580;2023-07-29T05:46:00;1.30;;;1.00;;
32786;SDS011;19139;49.372;8.580;2023-07-29T05:48:27;1.90;;;1.10;;
32786;SDS011;19139;49.372;8.580;2023-07-29T05:50:53;1.03;;;0.90;;
32786;SDS011;19139;49.372;8.580;2023-07-29T05:53:20;1.40;;;1.30;;
32786;SDS011;19139;49.372;8.580;2023-07-29T05:55:47;1.00;;;0.90;;
32786;SDS011;19139;49.372;8.580;2023-07-29T05:58:13;1.40;;;1.30;;
32786;SDS011;19139;49.372;8.580;2023-07-29T06:00:40;0.83;;;0.83;;
32786;SDS011;19139;49.372;8.580;2023-07-29T06:03:07;1.03;;;0.93;;
32786;SDS011;19139;49.372;8.580;2023-07-29T06:05:34;2.57;;;1.17;;
32786;SDS011;19139;49.372;8.580;2023-07-29T06:08:00;1.23;;;1.07;;
32786;SDS011;19139;49.372;8.580;2023-07-29T06:10:27;4.67;;;1.30;;
32786;SDS011;19139;49.372;8.580;2023-07-29T06:12:53;7.33;;;1.70;;
32786;SDS011;19139;49.372;8.580;2023-07-29T06:15:20;2.23;;;1.60;;
32786;SDS011;19139;49.372;8.580;2023-07-29T06:17:49;1.70;;;1.27;;
32786;SDS011;19139;49.372;8.580;2023-07-29T06:20:15;3.93;;;1.97;;
32786;SDS011;19139;49.372;8.580;2023-07-29T06:22:42;2.60;;;1.80;;
32786;SDS011;19139;49.372;8.580;2023-07-29T06:25:09;2.30;;;1.40;;
32786;SDS011;19139;49.372;8.580;2023-07-29T06:27:36;3.17;;;1.63;;
32786;SDS011;19139;49.372;8.580;2023-07-29T06:30:03;1.30;;;1.07;;
32786;SDS011;19139;49.372;8.580;2023-07-29T06:32:30;2.20;;;1.90;;
32786;SDS011;19139;49.372;8.580;2023-07-29T06:34:57;2.13;;;1.97;;
32786;SDS011;19139;49.372;8.580;2023-07-29T06:37:25;3.00;;;1.70;;
32786;SDS011;19139;49.372;8.580;2023-07-29T06:39:51;2.00;;;1.60;;
32786;SDS011;19139;49.372;8.580;2023-07-29T06:42:18;2.47;;;1.80;;
32786;SDS011;19139;49.372;8.580;2023-07-29T06:44:45;3.73;;;2.03;;
32786;SDS011;19139;49.372;8.580;2023-07-29T06:47:12;1.77;;;1.67;;
32786;SDS011;19139;49.372;8.580;2023-07-29T06:49:39;2.33;;;1.90;;
32786;SDS011;19139;49.372;8.580;2023-07-29T06:52:05;1.93;;;1.50;;
32786;SDS011;19139;49.372;8.580;2023-07-29T06:54:32;1.87;;;1.73;;
32786;SDS011;19139;49.372;8.580;2023-07-29T06:56:59;2.20;;;2.00;;
32786;SDS011;19139;49.372;8.580;2023-07-29T06:59:25;2.40;;;1.90;;
32786;SDS011;19139;49.372;8.580;2023-07-29T07:01:52;1.40;;;1.30;;
32786;SDS011;19139;49.372;8.580;2023-07-29T07:04:19;10.30;;;3.23;;
32786;SDS011;19139;49.372;8.580;2023-07-29T07:06:46;5.90;;;2.30;;
32786;SDS011;19139;49.372;8.580;2023-07-29T07:09:13;2.57;;;1.70;;
32786;SDS011;19139;49.372;8.580;2023-07-29T07:11:39;2.50;;;2.13;;
32786;SDS011;19139;49.372;8.580;2023-07-29T07:14:06;4.13;;;2.00;;
32786;SDS011;19139;49.372;8.580;2023-07-29T07:16:32;3.77;;;2.23;;
32786;SDS011;19139;49.372;8.580;2023-07-29T07:18:59;3.07;;;2.07;;
32786;SDS011;19139;49.372;8.580;2023-07-29T07:21:26;2.70;;;2.03;;
32786;SDS011;19139;49.372;8.580;2023-07-29T07:23:53;1.87;;;1.70;;
32786;SDS011;19139;49.372;8.580;2023-07-29T07:26:19;2.57;;;2.00;;
32786;SDS011;19139;49.372;8.580;2023-07-29T07:28:46;3.10;;;2.10;;
32786;SDS011;19139;49.372;8.580;2023-07-29T07:31:13;2.20;;;2.00;;
32786;SDS011;19139;49.372;8.580;2023-07-29T07:33:39;2.23;;;1.87;;
32786;SDS011;19139;49.372;8.580;2023-07-29T07:36:06;3.40;;;2.40;;
32786;SDS011;19139;49.372;8.580;2023-07-29T07:38:33;2.53;;;1.80;;
32786;SDS011;19139;49.372;8.580;2023-07-29T07:41:00;2.63;;;2.30;;
32786;SDS011;19139;49.372;8.580;2023-07-29T07:43:27;2.90;;;2.10;;
32786;SDS011;19139;49.372;8.580;2023-07-29T07:45:57;3.03;;;2.20;;
32786;SDS011;19139;49.372;8.580;2023-07-29T07:48:25;3.80;;;1.87;;
32786;SDS011;19139;49.372;8.580;2023-07-29T07:50:52;2.33;;;2.07;;
32786;SDS011;19139;49.372;8.580;2023-07-29T07:53:19;2.33;;;2.00;;
32786;SDS011;19139;49.372;8.580;2023-07-29T07:55:48;2.17;;;1.97;;
32786;SDS011;19139;49.372;8.580;2023-07-29T07:58:15;2.40;;;1.77;;
32786;SDS011;19139;49.372;8.580;2023-07-29T08:00:42;4.00;;;2.30;;
32786;SDS011;19139;49.372;8.580;2023-07-29T08:03:09;2.20;;;1.97;;
32786;SDS011;19139;49.372;8.580;2023-07-29T08:05:36;3.50;;;2.20;;
32786;SDS011;19139;49.372;8.580;2023-07-29T08:08:02;2.33;;;1.80;;
32786;SDS011;19139;49.372;8.580;2023-07-29T08:10:29;2.00;;;1.80;;
32786;SDS011;19139;49.372;8.580;2023-07-29T08:12:56;2.43;;;1.90;;
32786;SDS011;19139;49.372;8.580;2023-07-29T08:15:22;2.60;;;1.87;;
32786;SDS011;19139;49.372;8.580;2023-07-29T08:17:49;3.27;;;1.67;;
32786;SDS011;19139;49.372;8.580;2023-07-29T08:20:16;3.77;;;1.80;;
32786;SDS011;19139;49.372;8.580;2023-07-29T08:22:43;3.80;;;1.60;;
32786;SDS011;19139;49.372;8.580;2023-07-29T08:25:09;2.50;;;1.60;;
32786;SDS011;19139;49.372;8.580;2023-07-29T08:27:36;2.63;;;1.73;;
32786;SDS011;19139;49.372;8.580;2023-07-29T08:30:03;2.00;;;1.50;;
32786;SDS011;19139;49.372;8.580;2023-07-29T08:32:30;2.40;;;1.80;;
32786;SDS011;19139;49.372;8.580;2023-07-29T08:34:56;1.60;;;1.40;;
32786;SDS011;19139;49.372;8.580;2023-07-29T08:37:23;2.50;;;1.50;;
32786;SDS011;19139;49.372;8.580;2023-07-29T08:39:49;1.67;;;1.57;;
32786;SDS011;19139;49.372;8.580;2023-07-29T08:42:16;1.47;;;1.37;;
32786;SDS011;19139;49.372;8.580;2023-07-29T08:44:45;1.77;;;1.40;;
32786;SDS011;19139;49.372;8.580;2023-07-29T08:47:15;3.60;;;2.10;;
32786;SDS011;19139;49.372;8.580;2023-07-29T08:49:43;3.33;;;1.80;;
32786;SDS011;19139;49.372;8.580;2023-07-29T08:52:11;1.70;;;1.40;;
32786;SDS011;19139;49.372;8.580;2023-07-29T08:54:39;1.73;;;1.43;;
32786;SDS011;19139;49.372;8.580;2023-07-29T08:57:06;1.60;;;1.50;;
32786;SDS011;19139;49.372;8.580;2023-07-29T08:59:33;1.87;;;1.40;;
32786;SDS011;19139;49.372;8.580;2023-07-29T09:02:00;1.63;;;1.53;;
32786;SDS011;19139;49.372;8.580;2023-07-29T09:04:27;2.83;;;1.50;;
32786;SDS011;19139;49.372;8.580;2023-07-29T09:06:55;1.30;;;1.20;;
32786;SDS011;19139;49.372;8.580;2023-07-29T09:09:22;2.07;;;1.40;;
32786;SDS011;19139;49.372;8.580;2023-07-29T09:11:49;2.23;;;1.60;;
32786;SDS011;19139;49.372;8.580;2023-07-29T09:14:16;1.73;;;1.40;;
32786;SDS011;19139;49.372;8.580;2023-07-29T09:16:43;2.33;;;1.40;;
32786;SDS011;19139;49.372;8.580;2023-07-29T09:19:10;1.50;;;1.33;;
32786;SDS011;19139;49.372;8.580;2023-07-29T09:21:40;1.50;;;1.40;;
32786;SDS011;19139;49.372;8.580;2023-07-29T09:24:07;1.50;;;1.17;;
32786;SDS011;19139;49.372;8.580;2023-07-29T09:26:35;1.63;;;1.23;;
32786;SDS011;19139;49.372;8.580;2023-07-29T09:29:02;1.43;;;1.23;;
32786;SDS011;19139;49.372;8.580;2023-07-29T09:31:29;1.20;;;1.00;;
32786;SDS011;19139;49.372;8.580;2023-07-29T09:33:59;2.67;;;1.30;;
32786;SDS011;19139;49.372;8.580;2023-07-29T09:36:30;1.40;;;1.20;;
32786;SDS011;19139;49.372;8.580;2023-07-29T09:38:57;1.77;;;1.03;;
32786;SDS011;19139;49.372;8.580;2023-07-29T09:41:25;2.33;;;1.20;;
32786;SDS011;19139;49.372;8.580;2023-07-29T09:43:57;1.63;;;1.40;;
32786;SDS011;19139;49.372;8.580;2023-07-29T09:46:32;1.80;;;1.47;;
32786;SDS011;19139;49.372;8.580;2023-07-29T09:49:01;2.00;;;1.13;;
32786;SDS011;19139;49.372;8.580;2023-07-29T09:51:29;2.63;;;1.43;;
32786;SDS011;19139;49.372;8.580;2023-07-29T09:53:56;1.37;;;1.27;;
32786;SDS011;19139;49.372;8.580;2023-07-29T09:56:25;2.17;;;1.30;;
32786;SDS011;19139;49.372;8.580;2023-07-29T09:58:54;1.47;;;1.20;;
32786;SDS011;19139;49.372;8.580;2023-07-29T10:01:22;1.53;;;1.20;;
32786;SDS011;19139;49.372;8.580;2023-07-29T10:03:49;1.67;;;1.23;;
32786;SDS011;19139;49.372;8.580;2023-07-29T10:06:16;2.33;;;1.30;;
32786;SDS011;19139;49.372;8.580;2023-07-29T10:08:44;2.60;;;1.30;;
32786;SDS011;19139;49.372;8.580;2023-07-29T10:11:11;1.37;;;1.07;;
32786;SDS011;19139;49.372;8.580;2023-07-29T10:13:38;1.80;;;1.13;;
32786;SDS011;19139;49.372;8.580;2023-07-29T10:16:05;1.83;;;1.27;;
32786;SDS011;19139;49.372;8.580;2023-07-29T10:18:33;2.17;;;1.20;;
32786;SDS011;19139;49.372;8.580;2023-07-29T10:21:00;1.50;;;1.07;;
32786;SDS011;19139;49.372;8.580;2023-07-29T10:23:29;1.30;;;0.97;;
32786;SDS011;19139;49.372;8.580;2023-07-29T10:26:05;1.43;;;1.33;;
32786;SDS011;19139;49.372;8.580;2023-07-29T10:28:36;1.37;;;1.10;;
32786;SDS011;19139;49.372;8.580;2023-07-29T10:31:06;1.20;;;0.80;;
32786;SDS011;19139;49.372;8.580;2023-07-29T10:33:33;1.53;;;1.10;;
32786;SDS011;19139;49.372;8.580;2023-07-29T10:36:01;1.40;;;1.27;;
32786;SDS011;19139;49.372;8.580;2023-07-29T10:38:28;1.50;;;1.40;;
32786;SDS011;19139;49.372;8.580;2023-07-29T10:40:56;1.20;;;1.10;;
32786;SDS011;19139;49.372;8.580;2023-07-29T10:45:59;1.70;;;1.00;;
32786;SDS011;19139;49.372;8.580;2023-07-29T10:48:55;1.37;;;1.27;;
32786;SDS011;19139;49.372;8.580;2023-07-29T10:51:27;2.40;;;1.27;;
32786;SDS011;19139;49.372;8.580;2023-07-29T10:53:59;1.50;;;1.23;;
32786;SDS011;19139;49.372;8.580;2023-07-29T10:56:36;1.73;;;1.40;;
32786;SDS011;19139;49.372;8.580;2023-07-29T11:02:06;1.00;;;0.90;;
32786;SDS011;19139;49.372;8.580;2023-07-29T11:04:45;1.43;;;1.33;;
32786;SDS011;19139;49.372;8.580;2023-07-29T11:09:54;1.23;;;1.00;;
32786;SDS011;19139;49.372;8.580;2023-07-29T11:18:22;2.00;;;1.30;;
32786;SDS011;19139;49.372;8.580;2023-07-29T11:20:42;1.67;;;1.30;;
32786;SDS011;19139;49.372;8.580;2023-07-29T11:23:11;1.30;;;1.13;;
32786;SDS011;19139;49.372;8.580;2023-07-29T11:25:37;1.30;;;1.17;;
32786;SDS011;19139;49.372;8.580;2023-07-29T11:28:05;1.63;;;1.03;;
32786;SDS011;19139;49.372;8.580;2023-07-29T11:30:32;1.03;;;0.97;;
32786;SDS011;19139;49.372;8.580;2023-07-29T11:33:00;1.20;;;1.10;;
32786;SDS011;19139;49.372;8.580;2023-07-29T11:35:27;1.73;;;1.53;;
32786;SDS011;19139;49.372;8.580;2023-07-29T11:37:54;1.20;;;1.10;;
32786;SDS011;19139;49.372;8.580;2023-07-29T11:40:23;1.43;;;1.23;;
32786;SDS011;19139;49.372;8.580;2023-07-29T11:42:51;1.60;;;1.50;;
32786;SDS011;19139;49.372;8.580;2023-07-29T11:45:19;1.07;;;0.93;;
32786;SDS011;19139;49.372;8.580;2023-07-29T11:47:46;1.20;;;1.10;;
32786;SDS011;19139;49.372;8.580;2023-07-29T11:50:14;1.40;;;1.27;;
32786;SDS011;19139;49.372;8.580;2023-07-29T11:52:42;2.63;;;1.23;;
32786;SDS011;19139;49.372;8.580;2023-07-29T11:55:10;1.30;;;1.20;;
32786;SDS011;19139;49.372;8.580;2023-07-29T11:57:38;0.93;;;0.80;;
32786;SDS011;19139;49.372;8.580;2023-07-29T12:00:06;2.10;;;1.30;;
32786;SDS011;19139;49.372;8.580;2023-07-29T12:02:36;1.30;;;1.20;;
32786;SDS011;19139;49.372;8.580;2023-07-29T12:05:05;1.50;;;1.20;;
32786;SDS011;19139;49.372;8.580;2023-07-29T12:07:33;1.10;;;1.00;;
32786;SDS011;19139;49.372;8.580;2023-07-29T12:09:59;1.90;;;1.40;;
32786;SDS011;19139;49.372;8.580;2023-07-29T12:12:27;1.53;;;1.20;;
32786;SDS011;19139;49.372;8.580;2023-07-29T12:14:54;1.40;;;1.30;;
32786;SDS011;19139;49.372;8.580;2023-07-29T12:17:21;1.60;;;1.30;;
32786;SDS011;19139;49.372;8.580;2023-07-29T12:19:48;1.87;;;1.33;;
32786;SDS011;19139;49.372;8.580;2023-07-29T12:22:17;2.10;;;1.20;;
32786;SDS011;19139;49.372;8.580;2023-07-29T12:24:44;1.43;;;1.10;;
32786;SDS011;19139;49.372;8.580;2023-07-29T12:27:12;1.70;;;1.40;;
32786;SDS011;19139;49.372;8.580;2023-07-29T12:29:40;1.40;;;1.30;;
32786;SDS011;19139;49.372;8.580;2023-07-29T12:32:08;2.57;;;1.30;;
32786;SDS011;19139;49.372;8.580;2023-07-29T12:34:36;1.40;;;1.00;;
32786;SDS011;19139;49.372;8.580;2023-07-29T12:37:05;2.43;;;1.07;;
32786;SDS011;19139;49.372;8.580;2023-07-29T12:39:34;1.60;;;1.20;;
32786;SDS011;19139;49.372;8.580;2023-07-29T12:42:07;1.37;;;1.00;;
32786;SDS011;19139;49.372;8.580;2023-07-29T12:44:35;1.67;;;1.13;;
32786;SDS011;19139;49.372;8.580;2023-07-29T12:47:05;1.83;;;1.27;;
32786;SDS011;19139;49.372;8.580;2023-07-29T12:49:32;1.47;;;1.20;;
32786;SDS011;19139;49.372;8.580;2023-07-29T12:51:59;2.30;;;1.77;;
32786;SDS011;19139;49.372;8.580;2023-07-29T12:54:26;1.10;;;1.00;;
32786;SDS011;19139;49.372;8.580;2023-07-29T12:56:53;1.20;;;1.10;;
32786;SDS011;19139;49.372;8.580;2023-07-29T12:59:19;3.33;;;1.27;;
32786;SDS011;19139;49.372;8.580;2023-07-29T13:01:46;1.27;;;1.17;;
32786;SDS011;19139;49.372;8.580;2023-07-29T13:04:13;1.50;;;1.23;;
32786;SDS011;19139;49.372;8.580;2023-07-29T13:06:40;1.80;;;1.40;;
32786;SDS011;19139;49.372;8.580;2023-07-29T13:09:06;1.20;;;1.10;;
32786;SDS011;19139;49.372;8.580;2023-07-29T13:11:33;1.50;;;1.13;;
32786;SDS011;19139;49.372;8.580;2023-07-29T13:14:00;1.30;;;1.17;;
32786;SDS011;19139;49.372;8.580;2023-07-29T13:16:27;1.20;;;1.10;;
32786;SDS011;19139;49.372;8.580;2023-07-29T13:18:55;2.10;;;0.90;;
32786;SDS011;19139;49.372;8.580;2023-07-29T13:21:22;1.60;;;1.23;;
32786;SDS011;19139;49.372;8.580;2023-07-29T13:23:49;1.53;;;1.23;;
32786;SDS011;19139;49.372;8.580;2023-07-29T13:26:17;1.63;;;1.00;;
32786;SDS011;19139;49.372;8.580;2023-07-29T13:28:43;1.33;;;1.10;;
32786;SDS011;19139;49.372;8.580;2023-07-29T13:31:10;2.10;;;1.10;;
32786;SDS011;19139;49.372;8.580;2023-07-29T13:33:37;1.30;;;1.00;;
32786;SDS011;19139;49.372;8.580;2023-07-29T13:36:04;1.20;;;1.07;;
32786;SDS011;19139;49.372;8.580;2023-07-29T13:38:31;1.83;;;1.20;;
32786;SDS011;19139;49.372;8.580;2023-07-29T13:40:58;2.17;;;1.40;;
32786;SDS011;19139;49.372;8.580;2023-07-29T13:43:25;1.20;;;1.00;;
32786;SDS011;19139;49.372;8.580;2023-07-29T13:45:52;1.30;;;1.20;;
32786;SDS011;19139;49.372;8.580;2023-07-29T13:48:18;1.20;;;1.00;;
32786;SDS011;19139;49.372;8.580;2023-07-29T13:50:46;2.23;;;1.20;;
32786;SDS011;19139;49.372;8.580;2023-07-29T13:53:12;1.40;;;1.20;;
32786;SDS011;19139;49.372;8.580;2023-07-29T13:55:39;1.57;;;1.27;;
32786;SDS011;19139;49.372;8.580;2023-07-29T13:58:06;1.07;;;1.00;;
32786;SDS011;19139;49.372;8.580;2023-07-29T14:00:33;1.30;;;1.10;;
32786;SDS011;19139;49.372;8.580;2023-07-29T14:02:59;1.20;;;1.10;;
32786;SDS011;19139;49.372;8.580;2023-07-29T14:05:26;1.37;;;1.27;;
32786;SDS011;19139;49.372;8.580;2023-07-29T14:07:53;1.47;;;1.20;;
32786;SDS011;19139;49.372;8.580;2023-07-29T14:10:19;1.50;;;1.30;;
32786;SDS011;19139;49.372;8.580;2023-07-29T14:12:46;1.67;;;1.40;;
32786;SDS011;19139;49.372;8.580;2023-07-29T14:15:13;1.00;;;0.90;;
32786;SDS011;19139;49.372;8.580;2023-07-29T14:17:40;1.27;;;1.10;;
32786;SDS011;19139;49.372;8.580;2023-07-29T14:20:06;1.70;;;1.10;;
32786;SDS011;19139;49.372;8.580;2023-07-29T14:22:33;1.40;;;1.30;;
32786;SDS011;19139;49.372;8.580;2023-07-29T14:25:00;2.13;;;1.30;;
32786;SDS011;19139;49.372;8.580;2023-07-29T14:27:27;1.13;;;1.03;;
32786;SDS011;19139;49.372;8.580;2023-07-29T14:29:54;1.40;;;1.27;;
32786;SDS011;19139;49.372;8.580;2023-07-29T14:32:20;1.30;;;1.20;;
32786;SDS011;19139;49.372;8.580;2023-07-29T14:34:49;1.30;;;1.20;;
32786;SDS011;19139;49.372;8.580;2023-07-29T14:37:16;1.20;;;1.10;;
32786;SDS011;19139;49.372;8.580;2023-07-29T14:39:42;1.20;;;1.10;;
32786;SDS011;19139;49.372;8.580;2023-07-29T14:42:09;1.60;;;1.50;;
32786;SDS011;19139;49.372;8.580;2023-07-29T14:44:36;1.40;;;1.17;;
32786;SDS011;19139;49.372;8.580;2023-07-29T14:47:03;1.60;;;1.50;;
32786;SDS011;19139;49.372;8.580;2023-07-29T14:49:29;1.87;;;1.23;;
32786;SDS011;19139;49.372;8.580;2023-07-29T14:51:56;2.00;;;1.43;;
32786;SDS011;19139;49.372;8.580;2023-07-29T14:54:23;2.53;;;2.17;;
32786;SDS011;19139;49.372;8.580;2023-07-29T14:56:49;1.83;;;1.63;;
32786;SDS011;19139;49.372;8.580;2023-07-29T14:59:16;2.00;;;1.80;;
32786;SDS011;19139;49.372;8.580;2023-07-29T15:01:42;1.67;;;1.57;;
32786;SDS011;19139;49.372;8.580;2023-07-29T15:04:09;4.53;;;1.90;;
32786;SDS011;19139;49.372;8.580;2023-07-29T15:06:36;2.23;;;1.73;;